createdAt,value
2023-04-30T00:00:27.499Z,63.41
2023-04-30T00:02:55.130Z,63.35
2023-04-30T00:05:22.278Z,63.39
2023-04-30T00:07:49.411Z,63.53
2023-04-30T00:10:16.287Z,63.06
2023-04-30T00:12:43.529Z,62.41
2023-04-30T00:15:11.606Z,62.13
2023-04-30T00:17:38.694Z,62.11
2023-04-30T00:20:06.660Z,61.74
2023-04-30T00:22:33.973Z,61.56
2023-04-30T00:25:01.230Z,61.38
2023-04-30T00:27:28.473Z,61.25
2023-04-30T00:29:56.147Z,61.19
2023-04-30T00:32:23.520Z,61.30
2023-04-30T00:34:50.841Z,61.38
2023-04-30T00:37:17.787Z,61.53
2023-04-30T00:39:44.825Z,61.63
2023-04-30T00:42:11.981Z,61.84
2023-04-30T00:44:38.846Z,61.86
2023-04-30T00:47:05.866Z,61.88
2023-04-30T00:49:33.117Z,61.91
2023-04-30T00:52:00.988Z,61.46
2023-04-30T00:54:28.230Z,61.28
2023-04-30T00:56:55.178Z,61.33
2023-04-30T00:59:22.225Z,61.29
2023-04-30T01:01:49.370Z,61.39
2023-04-30T01:04:17.153Z,61.49
2023-04-30T01:06:44.553Z,61.23
2023-04-30T01:09:11.642Z,61.40
2023-04-30T01:11:54.663Z,61.76
2023-04-30T01:15:04.613Z,61.99
2023-04-30T01:17:56.688Z,62.34
2023-04-30T01:20:24.102Z,62.46
2023-04-30T01:22:55.982Z,62.69
2023-04-30T01:25:36.132Z,62.78
2023-04-30T01:28:03.571Z,63.00
2023-04-30T01:30:31.848Z,63.29
2023-04-30T01:32:59.246Z,63.55
2023-04-30T01:35:39.982Z,63.72
2023-04-30T01:38:19.000Z,63.85
2023-04-30T01:40:56.887Z,64.02
2023-04-30T01:43:32.346Z,64.14
2023-04-30T01:46:30.524Z,64.15
2023-04-30T01:49:10.474Z,64.05
2023-04-30T01:51:41.513Z,63.97
2023-04-30T01:54:25.046Z,64.01
2023-04-30T01:57:13.192Z,64.10
2023-04-30T01:59:40.647Z,64.27
2023-04-30T02:02:07.721Z,64.43
2023-04-30T02:04:34.743Z,64.46
2023-04-30T02:07:01.786Z,64.59
2023-04-30T02:09:29.037Z,64.60
2023-04-30T02:11:57.337Z,64.85
2023-04-30T02:14:24.792Z,65.05
2023-04-30T02:16:53.153Z,65.18
2023-04-30T02:19:20.294Z,65.21
2023-04-30T02:21:47.346Z,65.34
2023-04-30T02:24:14.501Z,65.46
2023-04-30T02:26:41.544Z,65.48
2023-04-30T02:29:08.377Z,65.68
2023-04-30T02:31:35.391Z,65.74
2023-04-30T02:34:02.582Z,65.85
2023-04-30T02:36:35.768Z,65.85
2023-04-30T02:39:03.321Z,66.00
2023-04-30T02:41:30.472Z,66.16
2023-04-30T02:43:57.514Z,66.13
2023-04-30T02:46:24.765Z,66.23
2023-04-30T02:48:51.919Z,66.26
2023-04-30T02:51:19.072Z,66.17
2023-04-30T02:53:46.013Z,66.17
2023-04-30T02:56:13.061Z,66.10
2023-04-30T02:58:40.617Z,66.08
2023-04-30T03:01:07.908Z,66.10
2023-04-30T03:03:35.365Z,66.31
2023-04-30T03:06:02.501Z,66.48
2023-04-30T03:08:29.829Z,66.54
2023-04-30T03:10:56.846Z,66.71
2023-04-30T03:13:26.786Z,66.73
2023-04-30T03:16:00.702Z,66.92
2023-04-30T03:18:28.382Z,67.01
2023-04-30T03:20:55.304Z,67.14
2023-04-30T03:23:22.763Z,67.30
2023-04-30T03:25:49.912Z,67.41
2023-04-30T03:28:16.858Z,67.36
2023-04-30T03:30:43.928Z,67.30
2023-04-30T03:33:11.280Z,67.27
2023-04-30T03:35:38.718Z,67.44
2023-04-30T03:38:05.872Z,67.62
2023-04-30T03:40:32.814Z,67.68
2023-04-30T03:42:59.875Z,67.55
2023-04-30T03:45:27.137Z,67.62
2023-04-30T03:47:54.212Z,67.53
2023-04-30T03:50:21.427Z,67.33
2023-04-30T03:52:48.525Z,67.39
2023-04-30T03:55:16.019Z,67.56
2023-04-30T03:57:43.192Z,67.45
2023-04-30T04:00:11.868Z,67.28
2023-04-30T04:02:41.687Z,67.25
2023-04-30T04:05:10.262Z,67.18
2023-04-30T04:07:37.302Z,67.22
2023-04-30T04:10:05.062Z,67.26
2023-04-30T04:12:32.412Z,67.09
2023-04-30T04:14:59.563Z,67.03
2023-04-30T04:17:26.970Z,66.75
2023-04-30T04:19:54.205Z,66.62
2023-04-30T04:22:21.561Z,66.53
2023-04-30T04:24:48.987Z,66.56
2023-04-30T04:27:20.023Z,66.52
2023-04-30T04:29:47.711Z,66.15
2023-04-30T04:32:14.721Z,66.42
2023-04-30T04:34:43.327Z,66.25
2023-04-30T04:37:10.367Z,66.14
2023-04-30T04:39:38.114Z,65.91
2023-04-30T04:42:05.176Z,65.78
2023-04-30T04:44:33.040Z,65.69
2023-04-30T04:47:00.383Z,65.56
2023-04-30T04:49:27.430Z,65.58
2023-04-30T04:51:54.587Z,65.48
2023-04-30T04:54:22.045Z,65.64
2023-04-30T04:56:49.284Z,65.78
2023-04-30T04:59:18.021Z,65.74
2023-04-30T05:01:45.379Z,65.95
2023-04-30T05:04:13.704Z,66.15
2023-04-30T05:06:42.231Z,66.17
2023-04-30T05:09:09.542Z,66.13
2023-04-30T05:11:37.819Z,66.00
2023-04-30T05:17:27.466Z,66.24
2023-04-30T05:19:55.357Z,66.26
2023-04-30T05:22:22.731Z,66.14
2023-04-30T05:24:49.778Z,66.05
2023-04-30T05:27:17.140Z,65.89
2023-04-30T05:29:44.285Z,66.05
2023-04-30T05:32:11.686Z,66.03
2023-04-30T05:34:38.821Z,66.02
2023-04-30T05:37:05.934Z,66.09
2023-04-30T05:39:33.185Z,66.14
2023-04-30T05:42:00.334Z,66.28
2023-04-30T05:44:30.505Z,66.23
2023-04-30T05:46:57.611Z,66.31
2023-04-30T05:49:24.644Z,66.18
2023-04-30T05:51:51.676Z,65.78
2023-04-30T05:54:19.152Z,65.54
2023-04-30T05:56:46.618Z,65.80
2023-04-30T05:59:14.167Z,65.80
2023-04-30T06:01:41.880Z,65.73
2023-04-30T06:04:09.700Z,65.53
2023-04-30T06:06:37.278Z,65.50
2023-04-30T06:09:04.506Z,65.29
2023-04-30T06:11:31.560Z,65.30
2023-04-30T06:13:58.705Z,65.36
2023-04-30T06:16:25.814Z,65.37
2023-04-30T06:18:53.828Z,65.62
2023-04-30T06:21:21.199Z,65.65
2023-04-30T06:23:48.546Z,65.69
2023-04-30T06:26:15.604Z,65.57
2023-04-30T06:28:42.727Z,65.31
2023-04-30T06:31:10.372Z,65.08
2023-04-30T06:33:37.377Z,64.54
2023-04-30T06:36:04.994Z,64.15
2023-04-30T06:38:32.166Z,63.98
2023-04-30T06:40:59.215Z,63.98
2023-04-30T06:43:26.343Z,64.14
2023-04-30T06:45:53.395Z,64.20
2023-04-30T06:48:20.739Z,64.18
2023-04-30T06:50:47.920Z,64.38
2023-04-30T06:53:15.248Z,64.39
2023-04-30T06:55:43.036Z,64.21
2023-04-30T06:58:10.173Z,64.11
2023-04-30T07:00:37.310Z,64.40
2023-04-30T07:03:05.079Z,64.75
2023-04-30T07:05:32.668Z,64.82
2023-04-30T07:08:01.607Z,64.82
2023-04-30T07:10:28.667Z,64.77
2023-04-30T07:12:55.819Z,64.55
2023-04-30T07:15:23.065Z,64.69
2023-04-30T07:17:50.189Z,65.00
2023-04-30T07:20:17.581Z,65.18
2023-04-30T07:26:08.607Z,65.44
2023-04-30T07:28:35.644Z,65.71
2023-04-30T07:31:03.217Z,65.69
2023-04-30T07:33:30.768Z,65.77
2023-04-30T07:35:58.838Z,65.62
2023-04-30T07:38:25.892Z,65.61
2023-04-30T07:40:53.133Z,65.56
2023-04-30T07:43:20.286Z,65.43
2023-04-30T07:45:49.765Z,65.52
2023-04-30T07:48:17.552Z,65.49
2023-04-30T07:50:44.598Z,65.37
2023-04-30T07:53:11.760Z,65.33
2023-04-30T07:55:38.895Z,65.46
2023-04-30T07:58:06.154Z,65.19
2023-04-30T08:00:33.157Z,65.27
2023-04-30T08:03:00.948Z,65.16
2023-04-30T08:05:28.314Z,65.08
2023-04-30T08:07:55.672Z,65.02
2023-04-30T08:10:22.817Z,65.16
2023-04-30T08:12:49.965Z,65.15
2023-04-30T08:15:17.030Z,65.10
2023-04-30T08:21:08.350Z,64.96
2023-04-30T08:23:35.471Z,64.90
2023-04-30T08:26:02.649Z,64.51
2023-04-30T08:28:29.613Z,64.74
2023-04-30T08:30:56.677Z,64.69
2023-04-30T08:33:24.220Z,64.90
2023-04-30T08:35:51.659Z,64.82
2023-04-30T08:38:19.013Z,64.64
2023-04-30T08:40:52.315Z,65.10
2023-04-30T08:43:20.476Z,65.14
2023-04-30T08:45:47.649Z,65.30
2023-04-30T08:48:16.825Z,65.26
2023-04-30T08:50:44.083Z,65.01
2023-04-30T08:53:11.534Z,65.00
2023-04-30T08:55:40.039Z,65.28
2023-04-30T08:58:08.905Z,65.23
2023-04-30T09:00:36.049Z,65.36
2023-04-30T09:03:03.312Z,65.54
2023-04-30T09:05:31.381Z,65.35
2023-04-30T09:08:03.709Z,65.28
2023-04-30T09:10:35.121Z,65.04
2023-04-30T09:13:03.307Z,64.86
2023-04-30T09:15:31.250Z,64.95
2023-04-30T09:18:15.779Z,65.03
2023-04-30T09:21:02.039Z,64.92
2023-04-30T09:23:30.115Z,65.26
2023-04-30T09:25:57.308Z,65.24
2023-04-30T09:28:26.755Z,65.25
2023-04-30T09:30:54.071Z,65.06
2023-04-30T09:33:21.365Z,64.81
2023-04-30T09:35:49.286Z,64.69
2023-04-30T09:38:29.587Z,64.11
2023-04-30T09:40:58.639Z,63.65
2023-04-30T09:43:26.443Z,63.45
2023-04-30T09:45:53.456Z,63.42
2023-04-30T09:48:24.101Z,63.13
2023-04-30T09:50:51.747Z,62.85
2023-04-30T09:53:19.433Z,62.46
2023-04-30T09:55:51.379Z,62.33
2023-04-30T09:58:19.143Z,62.01
2023-04-30T10:00:48.559Z,61.57
2023-04-30T10:03:16.618Z,61.37
2023-04-30T10:05:47.385Z,61.38
2023-04-30T10:08:38.240Z,61.53
2023-04-30T10:11:06.317Z,61.60
2023-04-30T10:13:55.986Z,61.54
2023-04-30T10:16:29.417Z,61.90
2023-04-30T10:18:56.756Z,61.72
2023-04-30T10:21:24.096Z,61.45
2023-04-30T10:23:51.758Z,61.36
2023-04-30T10:26:19.640Z,61.38
2023-04-30T10:28:47.100Z,61.32
2023-04-30T10:31:14.632Z,61.43
2023-04-30T10:33:54.276Z,61.67
2023-04-30T10:36:34.130Z,61.27
2023-04-30T10:39:01.204Z,61.45
2023-04-30T10:41:29.754Z,61.74
2023-04-30T10:44:00.538Z,61.70
2023-04-30T10:46:29.326Z,61.83
2023-04-30T10:48:56.630Z,61.73
2023-04-30T10:51:23.649Z,62.05
2023-04-30T10:53:52.165Z,62.20
2023-04-30T10:56:32.730Z,62.31
2023-04-30T10:59:02.527Z,62.53
2023-04-30T11:01:29.925Z,63.04
2023-04-30T11:04:07.638Z,62.25
2023-04-30T11:06:53.000Z,61.66
2023-04-30T11:09:20.931Z,61.10
2023-04-30T11:11:50.598Z,60.92
2023-04-30T11:14:21.384Z,61.01
2023-04-30T11:16:53.860Z,60.95
2023-04-30T11:19:20.898Z,61.01
2023-04-30T11:22:03.520Z,61.09
2023-04-30T11:25:06.266Z,60.67
2023-04-30T11:27:34.465Z,60.46
2023-04-30T11:30:02.650Z,60.37
2023-04-30T11:32:36.749Z,60.41
2023-04-30T11:35:04.741Z,60.30
2023-04-30T11:37:33.507Z,60.28
2023-04-30T11:40:08.848Z,60.09
2023-04-30T11:42:36.103Z,60.08
2023-04-30T11:45:08.592Z,59.88
2023-04-30T11:47:43.051Z,59.77
2023-04-30T11:50:12.093Z,59.73
2023-04-30T11:52:40.063Z,59.55
2023-04-30T11:55:09.109Z,59.35
2023-04-30T11:57:41.171Z,58.71
2023-04-30T12:00:15.673Z,58.75
2023-04-30T12:02:50.027Z,58.50
2023-04-30T12:05:21.919Z,58.27
2023-04-30T12:08:04.856Z,57.95
2023-04-30T12:10:32.208Z,57.83
2023-04-30T12:12:59.473Z,57.97
2023-04-30T12:15:27.587Z,58.34
2023-04-30T12:18:14.090Z,58.11
2023-04-30T12:20:41.579Z,57.87
2023-04-30T12:23:08.835Z,57.85
2023-04-30T12:25:43.256Z,57.57
2023-04-30T12:28:10.396Z,57.82
2023-04-30T12:30:37.796Z,58.06
2023-04-30T12:33:06.411Z,57.85
2023-04-30T12:35:33.583Z,57.72
2023-04-30T12:38:05.553Z,57.72
2023-04-30T12:40:32.700Z,57.70
2023-04-30T12:43:00.799Z,57.64
2023-04-30T12:45:44.914Z,57.67
2023-04-30T12:48:12.817Z,57.40
2023-04-30T12:50:40.055Z,56.97
2023-04-30T12:53:09.870Z,56.52
2023-04-30T12:55:37.999Z,56.62
2023-04-30T12:58:11.559Z,56.30
2023-04-30T13:00:46.375Z,56.21
2023-04-30T13:03:14.016Z,56.15
2023-04-30T13:05:42.316Z,56.35
2023-04-30T13:08:10.046Z,56.44
2023-04-30T13:10:37.197Z,56.53
2023-04-30T13:13:04.246Z,56.17
2023-04-30T13:15:31.375Z,55.90
2023-04-30T13:17:58.871Z,55.73
2023-04-30T13:20:26.010Z,55.73
2023-04-30T13:22:53.655Z,55.63
2023-04-30T13:25:20.709Z,55.25
2023-04-30T13:27:47.856Z,55.25
2023-04-30T13:30:14.899Z,55.37
2023-04-30T13:32:43.419Z,55.62
2023-04-30T13:35:11.656Z,55.78
2023-04-30T13:37:39.219Z,56.06
2023-04-30T13:40:08.181Z,56.25
2023-04-30T13:42:37.304Z,56.30
2023-04-30T13:45:08.318Z,56.11
2023-04-30T13:47:35.931Z,55.76
2023-04-30T13:50:03.871Z,55.24
2023-04-30T13:52:30.921Z,55.02
2023-04-30T13:54:58.289Z,55.08
2023-04-30T13:57:25.535Z,54.80
2023-04-30T13:59:53.124Z,55.18
2023-04-30T14:02:20.354Z,55.59
2023-04-30T14:04:58.410Z,55.83
2023-04-30T14:07:32.683Z,55.58
2023-04-30T14:09:59.968Z,55.91
2023-04-30T14:12:26.974Z,56.24
2023-04-30T14:14:54.211Z,56.50
2023-04-30T14:17:21.497Z,56.70
2023-04-30T14:19:48.626Z,56.78
2023-04-30T14:22:17.013Z,56.59
2023-04-30T14:24:44.141Z,56.33
2023-04-30T14:27:11.182Z,56.51
2023-04-30T14:29:38.231Z,56.72
2023-04-30T14:32:06.631Z,56.73
2023-04-30T14:34:33.866Z,56.66
2023-04-30T14:37:03.114Z,56.56
2023-04-30T14:39:30.210Z,56.80
2023-04-30T14:41:57.268Z,57.34
2023-04-30T14:44:25.836Z,57.28
2023-04-30T14:46:53.498Z,56.99
2023-04-30T14:49:20.861Z,56.46
2023-04-30T14:51:48.617Z,56.23
2023-04-30T14:54:16.688Z,56.15
2023-04-30T14:56:44.772Z,56.13
2023-04-30T14:59:12.318Z,56.26
2023-04-30T15:01:39.513Z,56.38
2023-04-30T15:04:07.438Z,56.04
2023-04-30T15:06:34.536Z,55.73
2023-04-30T15:09:02.042Z,55.68
2023-04-30T15:11:29.199Z,55.47
2023-04-30T15:13:56.358Z,55.46
2023-04-30T15:16:23.432Z,55.83
2023-04-30T15:18:50.855Z,56.13
2023-04-30T15:21:18.923Z,56.13
2023-04-30T15:23:46.284Z,56.21
2023-04-30T15:26:13.418Z,56.40
2023-04-30T15:28:40.604Z,56.58
2023-04-30T15:31:07.739Z,56.68
2023-04-30T15:33:39.796Z,57.08
2023-04-30T15:36:06.942Z,56.94
2023-04-30T15:38:34.907Z,56.89
2023-04-30T15:41:01.956Z,57.01
2023-04-30T15:43:30.232Z,57.36
2023-04-30T15:45:57.299Z,57.75
2023-04-30T15:48:24.527Z,58.09
2023-04-30T15:50:51.564Z,57.99
2023-04-30T15:53:18.624Z,57.82
2023-04-30T15:55:46.891Z,57.90
2023-04-30T15:58:13.948Z,57.89
2023-04-30T16:00:41.802Z,57.49
2023-04-30T16:03:08.892Z,57.12
2023-04-30T16:05:39.078Z,57.10
2023-04-30T16:08:08.081Z,57.07
2023-04-30T16:10:35.113Z,57.14
2023-04-30T16:13:02.282Z,57.26
2023-04-30T16:15:30.596Z,57.23
2023-04-30T16:17:57.755Z,57.07
2023-04-30T16:20:25.046Z,57.40
2023-04-30T16:22:52.918Z,57.42
2023-04-30T16:25:21.107Z,57.45
2023-04-30T16:27:48.332Z,57.38
2023-04-30T16:30:15.790Z,57.40
2023-04-30T16:32:42.961Z,57.32
2023-04-30T16:35:10.329Z,56.91
2023-04-30T16:37:37.355Z,56.64
2023-04-30T16:40:06.551Z,56.67
2023-04-30T16:42:34.121Z,56.40
2023-04-30T16:45:01.855Z,56.24
2023-04-30T16:47:28.998Z,56.27
2023-04-30T16:49:58.637Z,56.54
2023-04-30T16:52:25.973Z,56.68
2023-04-30T16:54:53.122Z,56.94
2023-04-30T16:57:20.275Z,57.10
2023-04-30T16:59:47.626Z,57.36
2023-04-30T17:02:14.872Z,57.27
2023-04-30T17:04:42.353Z,57.28
2023-04-30T17:07:09.425Z,57.19
2023-04-30T17:09:37.760Z,57.23
2023-04-30T17:12:05.718Z,57.17
2023-04-30T17:14:32.768Z,57.30
2023-04-30T17:16:59.815Z,57.28
2023-04-30T17:19:26.858Z,57.30
2023-04-30T17:21:53.915Z,57.40
2023-04-30T17:24:20.956Z,57.55
2023-04-30T17:26:48.006Z,57.77
2023-04-30T17:29:15.356Z,58.00
2023-04-30T17:31:42.419Z,58.12
2023-04-30T17:34:10.484Z,58.06
2023-04-30T17:36:37.583Z,58.00
2023-04-30T17:39:06.002Z,57.96
2023-04-30T17:41:33.265Z,57.97
2023-04-30T17:44:00.624Z,57.99
2023-04-30T17:46:27.712Z,58.15
2023-04-30T17:48:54.807Z,58.36
2023-04-30T17:51:21.964Z,58.52
2023-04-30T17:53:49.110Z,58.71
2023-04-30T17:56:16.107Z,58.85
2023-04-30T17:58:43.205Z,58.81
2023-04-30T18:01:10.259Z,58.84
2023-04-30T18:03:37.412Z,58.91
2023-04-30T18:06:04.708Z,59.00
2023-04-30T18:08:31.817Z,59.02
2023-04-30T18:10:59.263Z,59.00
2023-04-30T18:13:27.735Z,59.01
2023-04-30T18:15:54.904Z,59.02
2023-04-30T18:18:22.187Z,59.01
2023-04-30T18:20:49.796Z,59.06
2023-04-30T18:23:16.958Z,59.03
2023-04-30T18:25:44.003Z,59.17
2023-04-30T18:28:11.156Z,59.17
2023-04-30T18:30:38.701Z,59.28
2023-04-30T18:33:06.308Z,59.35
2023-04-30T18:35:34.238Z,59.36
2023-04-30T18:38:01.983Z,59.53
2023-04-30T18:40:29.016Z,59.47
2023-04-30T18:42:57.112Z,59.55
2023-04-30T18:45:24.212Z,59.52
2023-04-30T18:47:51.482Z,59.59
2023-04-30T18:50:19.886Z,59.57
2023-04-30T18:52:46.994Z,59.58
2023-04-30T18:55:14.554Z,59.64
2023-04-30T18:57:42.436Z,59.68
2023-04-30T19:00:10.738Z,59.77
2023-04-30T19:02:38.096Z,59.72
2023-04-30T19:05:05.661Z,59.74
2023-04-30T19:07:32.803Z,59.80
2023-04-30T19:09:59.959Z,59.91
2023-04-30T19:12:26.999Z,59.84
2023-04-30T19:14:54.050Z,59.93
2023-04-30T19:17:21.864Z,60.05
2023-04-30T19:19:50.291Z,59.99
2023-04-30T19:22:17.641Z,59.98
2023-04-30T19:24:44.896Z,59.95
2023-04-30T19:27:12.182Z,60.08
2023-04-30T19:29:39.748Z,60.18
2023-04-30T19:32:07.025Z,60.12
2023-04-30T19:34:34.838Z,60.09
2023-04-30T19:37:01.973Z,60.16
2023-04-30T19:39:34.146Z,60.21
2023-04-30T19:42:01.824Z,60.25
2023-04-30T19:44:32.022Z,60.33
2023-04-30T19:46:59.073Z,60.33
2023-04-30T19:49:26.706Z,60.38
2023-04-30T19:51:54.909Z,60.52
2023-04-30T19:54:21.953Z,60.56
2023-04-30T19:56:53.115Z,60.72
2023-04-30T19:59:20.351Z,60.86
2023-04-30T20:01:48.880Z,60.98
2023-04-30T20:04:16.289Z,61.15
2023-04-30T20:06:45.064Z,61.28
2023-04-30T20:09:12.742Z,61.44
2023-04-30T20:11:39.880Z,61.45
2023-04-30T20:14:07.030Z,61.46
2023-04-30T20:16:34.546Z,61.51
2023-04-30T20:19:01.858Z,61.47
2023-04-30T20:21:29.401Z,61.50
2023-04-30T20:23:56.549Z,61.61
2023-04-30T20:26:25.964Z,61.67
2023-04-30T20:28:56.549Z,61.80
2023-04-30T20:31:23.963Z,62.00
2023-04-30T20:33:51.194Z,61.87
2023-04-30T20:36:18.541Z,61.87
2023-04-30T20:38:45.625Z,61.79
2023-04-30T20:41:12.849Z,61.72
2023-04-30T20:43:39.910Z,61.58
2023-04-30T20:46:07.349Z,61.55
2023-04-30T20:48:35.323Z,61.53
2023-04-30T20:51:02.363Z,61.46
2023-04-30T20:53:29.611Z,61.56
2023-04-30T20:56:00.458Z,61.60
2023-04-30T20:58:27.910Z,61.70
2023-04-30T21:00:54.987Z,61.77
2023-04-30T21:03:22.763Z,61.78
2023-04-30T21:05:50.278Z,61.74
2023-04-30T21:08:17.332Z,61.70
2023-04-30T21:10:44.373Z,61.59
2023-04-30T21:13:13.049Z,61.48
2023-04-30T21:15:40.108Z,61.47
2023-04-30T21:18:07.489Z,61.24
2023-04-30T21:20:34.501Z,60.92
2023-04-30T21:23:02.501Z,60.72
2023-04-30T21:25:29.519Z,60.46
2023-04-30T21:27:56.585Z,60.25
2023-04-30T21:30:25.770Z,59.99
2023-04-30T21:32:58.939Z,59.84
2023-04-30T21:35:28.032Z,59.74
2023-04-30T21:37:55.737Z,59.64
2023-04-30T21:40:22.779Z,59.63
2023-04-30T21:42:50.218Z,59.53
2023-04-30T21:45:17.226Z,59.51
2023-04-30T21:47:44.848Z,59.31
2023-04-30T21:50:12.492Z,59.10
2023-04-30T21:52:39.553Z,58.94
2023-04-30T21:55:08.029Z,58.83
2023-04-30T21:57:35.061Z,58.56
2023-04-30T22:00:02.302Z,58.24
2023-04-30T22:02:29.923Z,58.15
2023-04-30T22:04:58.033Z,57.97
2023-04-30T22:07:25.089Z,58.10
2023-04-30T22:09:52.895Z,58.09
2023-04-30T22:12:21.630Z,58.14
2023-04-30T22:14:50.421Z,57.96
2023-04-30T22:17:17.471Z,57.93
2023-04-30T22:19:44.516Z,57.91
2023-04-30T22:22:12.195Z,57.96
2023-04-30T22:24:39.230Z,57.83
2023-04-30T22:27:06.491Z,57.82
2023-04-30T22:29:33.828Z,57.71
2023-04-30T22:32:01.917Z,57.95
2023-04-30T22:34:29.149Z,57.61
2023-04-30T22:36:56.823Z,57.31
2023-04-30T22:39:23.968Z,57.10
2023-04-30T22:41:50.964Z,57.22
2023-04-30T22:44:17.976Z,57.14
2023-04-30T22:46:45.037Z,56.95
2023-04-30T22:49:27.271Z,56.61
2023-04-30T22:51:57.770Z,56.29
2023-04-30T22:54:25.595Z,56.16
2023-04-30T22:56:52.654Z,56.22
2023-04-30T22:59:19.702Z,56.12
2023-04-30T23:01:47.148Z,55.85
2023-04-30T23:04:14.316Z,55.66
2023-04-30T23:06:43.215Z,55.79
2023-04-30T23:09:10.539Z,55.84
2023-04-30T23:11:37.593Z,56.05
2023-04-30T23:14:04.942Z,55.93
2023-04-30T23:16:32.060Z,55.77
2023-04-30T23:18:59.342Z,55.41
2023-04-30T23:21:26.999Z,54.98
2023-04-30T23:23:54.056Z,54.72
2023-04-30T23:26:21.607Z,54.58
2023-04-30T23:28:48.654Z,54.63
2023-04-30T23:31:15.811Z,54.67
2023-04-30T23:33:42.852Z,54.64
2023-04-30T23:36:09.900Z,54.79
2023-04-30T23:38:37.053Z,54.89
2023-04-30T23:41:04.200Z,54.90
2023-04-30T23:43:33.094Z,54.91
2023-04-30T23:46:00.505Z,54.68
2023-04-30T23:48:27.695Z,54.31
2023-04-30T23:51:01.703Z,54.27
2023-04-30T23:53:28.854Z,53.87
2023-04-30T23:55:58.975Z,53.78
2023-04-30T23:58:26.329Z,53.78
